Time;durP1;ratioP1;P1;durP2;ratioP2;P2;SDS_P1;SDS_P2;PMS_P1;PMS_P2;Temp;Humidity;BMP_temperature;BMP_pressure;BME280_temperature;BME280_humidity;BME280_pressure;Samples;Min_cycle;Max_cycle;Signal;HPM_P1;HPM_P2
2023/04/01 00:01:03;;;;;;;0.50;0.50;;;18.10;64.80;;;18.15;49.27;93434.03;4866682;29;20201;-22
2023/04/01 00:03:32;;;;;;;0.47;0.47;;;18.00;64.80;;;18.16;49.03;93432.97;4851034;29;20677;-22
2023/04/01 00:06:01;;;;;;;0.40;0.40;;;18.00;64.80;;;18.15;49.32;93425.28;4866814;29;20249;-22
2023/04/01 00:08:29;;;;;;;0.50;0.50;;;18.10;64.80;;;18.16;48.83;93432.16;4866390;29;20189;-22
2023/04/01 00:10:57;;;;;;;0.55;0.55;;;18.00;64.90;;;18.14;49.39;93426.34;4882516;29;20190;-22
2023/04/01 00:13:27;;;;;;;0.50;0.50;;;18.00;64.80;;;18.14;49.06;93432.44;4866193;29;20212;-22
2023/04/01 00:15:55;;;;;;;0.40;0.40;;;18.10;65.00;;;18.14;49.39;93432.44;4882461;29;20212;-22
2023/04/01 00:18:24;;;;;;;0.40;0.40;;;18.00;64.80;;;18.14;49.37;93431.63;4866325;29;20194;-22
2023/04/01 00:20:53;;;;;;;0.43;0.43;;;18.00;64.80;;;18.13;48.90;93428.22;4866229;29;20292;-22
2023/04/01 00:23:20;;;;;;;0.40;0.40;;;18.00;64.90;;;18.13;49.38;93438.03;4882108;29;20228;-22
2023/04/01 00:25:49;;;;;;;0.50;0.50;;;18.00;64.80;;;18.12;49.41;93434.56;4866365;29;20277;-22
2023/04/01 00:28:18;;;;;;;0.50;0.50;;;18.00;64.90;;;18.13;49.19;93436.16;4882451;29;20205;-22
2023/04/01 00:30:46;;;;;;;0.50;0.50;;;18.00;64.90;;;18.14;49.22;93434.28;4882425;29;20228;-22
2023/04/01 00:33:15;;;;;;;0.40;0.40;;;18.00;64.80;;;18.13;49.38;93438.81;4882212;29;20193;-22
2023/04/01 00:35:42;;;;;;;0.50;0.50;;;18.00;64.90;;;18.10;48.89;93436.72;4866055;29;20284;-22
2023/04/01 00:38:11;;;;;;;0.50;0.50;;;18.00;65.80;;;18.12;49.11;93441.75;4882081;29;20198;-22
2023/04/01 00:40:44;;;;;;;0.43;0.43;;;18.00;64.90;;;18.09;49.04;93432.50;4865567;29;20216;-22
2023/04/01 00:43:20;;;;;;;0.60;0.60;;;18.00;65.00;;;18.11;49.32;93435.63;4865775;29;20293;-22
2023/04/01 00:45:49;;;;;;;0.40;0.40;;;18.00;65.00;;;18.10;49.16;93438.56;4865814;29;20587;-22
2023/04/01 00:48:25;;;;;;;0.43;0.43;;;18.00;65.00;;;18.08;49.05;93441.50;4865343;29;20237;-22
2023/04/01 00:51:01;;;;;;;0.40;0.40;;;18.00;65.00;;;18.08;49.11;93438.88;4882389;29;20276;-22
2023/04/01 00:53:30;;;;;;;0.50;0.50;;;18.00;65.00;;;18.08;49.57;93441.50;4865962;29;20201;-22
2023/04/01 00:56:04;;;;;;;0.50;0.50;;;18.00;65.00;;;18.07;49.30;93447.88;4850106;29;20201;-22
2023/04/01 00:58:38;;;;;;;0.50;0.50;;;18.00;65.00;;;18.06;48.92;93439.13;4850686;29;20209;-22
2023/04/01 01:01:08;;;;;;;0.50;0.50;;;18.00;65.00;;;18.06;49.50;93447.06;4851271;29;20181;-22
2023/04/01 01:03:36;;;;;;;0.50;0.50;;;18.00;65.00;;;18.05;49.50;93447.34;4865299;29;20300;-22
2023/04/01 01:06:46;;;;;;;0.45;0.45;;;18.00;65.00;;;18.05;49.04;93450.00;4849938;29;20266;-22
2023/04/01 01:10:03;;;;;;;0.50;0.50;;;18.00;65.00;;;18.02;49.09;93448.69;4865077;29;20300;-22
2023/04/01 01:12:45;;;;;;;0.40;0.40;;;17.90;64.90;;;17.99;49.27;93448.44;4854216;29;20205;-22
2023/04/01 01:15:41;;;;;;;0.50;0.50;;;17.90;65.00;;;17.98;49.42;93450.31;4865020;29;20269;-22
2023/04/01 01:18:51;;;;;;;0.50;0.50;;;17.90;65.00;;;17.98;49.01;93449.50;4873422;29;20220;-22
2023/04/01 01:21:46;;;;;;;0.50;0.50;;;17.90;65.00;;;17.98;49.16;93454.81;4865747;29;20189;-22
2023/04/01 01:24:31;;;;;;;0.57;0.57;;;17.90;65.00;;;17.97;49.33;93459.34;4864849;29;20323;-22
2023/04/01 01:27:04;;;;;;;0.47;0.47;;;17.90;65.00;;;17.96;49.51;93463.06;4881895;29;20555;-22
2023/04/01 01:30:13;;;;;;;0.50;0.50;;;17.90;65.10;;;17.95;49.21;93458.81;4881585;29;20505;-22
2023/04/01 01:33:10;;;;;;;0.40;0.40;;;17.80;65.00;;;17.95;49.68;93452.72;4881546;29;20182;-22
2023/04/01 01:35:47;;;;;;;0.50;0.50;;;17.80;65.00;;;17.93;49.73;93448.47;4868323;29;20186;-22
2023/04/01 01:38:24;;;;;;;0.50;0.50;;;17.80;65.10;;;17.93;49.06;93450.31;4850222;29;20212;-22
2023/04/01 01:41:00;;;;;;;0.50;0.50;;;17.80;65.10;;;17.91;49.56;93444.50;4850607;29;20523;-22
2023/04/01 01:43:39;;;;;;;0.50;0.50;;;17.80;65.10;;;17.92;49.34;93454.81;4864866;29;20240;-22
2023/04/01 01:46:20;;;;;;;0.50;0.50;;;17.80;65.10;;;17.93;49.62;93455.59;4849585;29;20612;-22
2023/04/01 01:48:48;;;;;;;0.50;0.50;;;17.80;65.10;;;17.93;49.27;93451.13;4849507;29;20601;-22
2023/04/01 01:51:16;;;;;;;0.30;0.30;;;17.80;65.10;;;17.94;49.26;93454.53;4864911;29;20284;-22
2023/04/01 01:53:43;;;;;;;0.50;0.50;;;17.80;65.20;;;17.93;49.08;93451.13;4849276;29;20246;-22
2023/04/01 01:56:15;;;;;;;0.50;0.50;;;17.80;65.10;;;17.94;49.39;93446.59;4849433;29;20198;-22
2023/04/01 01:58:51;;;;;;;0.50;0.50;;;17.80;65.10;;;17.94;49.13;93449.25;4864658;29;20201;-22
2023/04/01 02:01:26;;;;;;;0.60;0.60;;;17.80;65.20;;;17.93;49.72;93453.75;4865610;29;20202;-22
2023/04/01 02:03:58;;;;;;;0.43;0.43;;;17.80;65.10;;;17.91;49.43;93442.63;4849269;29;20217;-22
2023/04/01 02:06:32;;;;;;;0.55;0.55;;;17.80;65.10;;;17.92;49.79;93446.88;4849536;29;20202;-22
2023/04/01 02:09:04;;;;;;;0.50;0.50;;;17.80;65.10;;;17.94;49.47;93449.25;4865128;29;20201;-22
2023/04/01 02:11:51;;;;;;;0.50;0.50;;;17.80;65.10;;;17.91;49.42;93447.94;4849562;29;20181;-22
2023/04/01 02:14:26;;;;;;;0.50;0.50;;;17.80;65.10;;;17.92;49.31;93441.56;4849383;29;20219;-22
2023/04/01 02:17:14;;;;;;;0.40;0.40;;;17.80;65.10;;;17.95;49.49;93444.78;4864845;29;20300;-22
2023/04/01 02:20:06;;;;;;;0.50;0.50;;;17.80;65.10;;;17.91;49.68;93449.81;4867296;29;20198;-22
2023/04/01 02:22:41;;;;;;;0.50;0.50;;;17.80;65.20;;;17.89;49.61;93443.97;4868081;29;20194;-22
2023/04/01 02:25:14;;;;;;;0.40;0.40;;;17.80;65.10;;;17.90;49.76;93443.69;4868516;29;20213;-22
2023/04/01 02:27:44;;;;;;;0.50;0.50;;;17.80;65.10;;;17.91;49.28;93455.88;4868832;29;20178;-22
2023/04/01 02:30:15;;;;;;;0.40;0.40;;;17.80;65.20;;;17.90;49.56;93449.00;4867967;29;20203;-25
2023/04/01 02:32:43;;;;;;;0.50;0.50;;;17.80;65.20;;;17.90;49.45;93454.28;4885126;29;20652;-25
2023/04/01 02:35:15;;;;;;;0.50;0.50;;;17.80;65.20;;;17.91;49.55;93455.09;4883209;29;20204;-25
2023/04/01 02:37:44;;;;;;;0.50;0.50;;;17.80;65.20;;;17.90;49.19;93456.94;4853449;29;20575;-25
2023/04/01 02:40:14;;;;;;;0.50;0.50;;;17.80;65.20;;;17.91;49.67;93452.47;4867995;29;20276;-21
2023/04/01 02:42:41;;;;;;;0.50;0.50;;;17.80;65.20;;;17.91;49.68;93444.50;4868286;29;20200;-22
2023/04/01 02:45:11;;;;;;;0.50;0.50;;;17.80;65.20;;;17.92;49.51;93451.41;4883153;29;20229;-22
2023/04/01 02:47:38;;;;;;;0.40;0.40;;;17.80;65.20;;;17.91;49.76;93442.63;4852408;29;20669;-22
2023/04/01 02:50:07;;;;;;;0.50;0.50;;;17.80;65.20;;;17.89;49.68;93441.31;4867706;29;20677;-25
2023/04/01 02:52:35;;;;;;;0.50;0.50;;;17.80;65.20;;;17.91;49.31;93444.50;4852599;29;20534;-25
2023/04/01 02:55:03;;;;;;;0.60;0.60;;;17.80;65.20;;;17.91;49.70;93441.84;4867385;29;20201;-25
2023/04/01 02:57:32;;;;;;;0.50;0.50;;;17.80;65.10;;;17.90;49.60;93446.34;4852470;29;20210;-25
2023/04/01 02:59:59;;;;;;;0.45;0.45;;;17.80;65.20;;;17.89;49.89;93442.13;4882875;29;20717;-25
2023/04/01 03:02:27;;;;;;;0.40;0.40;;;17.70;65.10;;;17.89;49.69;93439.47;4883966;29;20332;-25
2023/04/01 03:04:54;;;;;;;0.40;0.40;;;17.80;65.20;;;17.90;49.04;93434.94;4837291;29;20285;-25
2023/04/01 03:07:21;;;;;;;0.50;0.50;;;17.80;65.20;;;17.90;49.29;93440.25;4867895;29;20548;-25
2023/04/01 03:09:49;;;;;;;0.55;0.55;;;17.80;65.20;;;17.89;49.31;93436.00;4867209;29;20549;-25
2023/04/01 03:12:16;;;;;;;0.50;0.50;;;17.80;65.20;;;17.88;49.68;93440.53;4867205;29;20269;-25
2023/04/01 03:14:49;;;;;;;0.60;0.60;;;17.80;65.20;;;17.90;49.75;93445.56;4867088;29;20583;-25
2023/04/01 03:17:16;;;;;;;0.40;0.40;;;17.80;65.20;;;17.90;49.62;93437.59;4867121;29;20220;-25
2023/04/01 03:19:44;;;;;;;0.50;0.50;;;17.80;65.30;;;17.88;49.67;93435.22;4867243;29;20641;-25
2023/04/01 03:22:12;;;;;;;0.50;0.50;;;17.80;65.20;;;17.89;49.66;93442.13;4867042;29;20615;-25
2023/04/01 03:24:39;;;;;;;0.40;0.40;;;17.70;65.10;;;17.89;49.28;93430.72;4867069;29;20218;-25
2023/04/01 03:27:06;;;;;;;0.52;0.52;;;17.80;65.20;;;17.87;49.75;93432.84;4851731;29;20205;-25
2023/04/01 03:29:33;;;;;;;0.43;0.43;;;17.80;65.30;;;17.87;49.82;93441.59;4866571;29;20205;-25
2023/04/01 03:32:01;;;;;;;0.50;0.50;;;17.70;65.10;;;17.86;49.49;93439.22;4866645;29;20190;-25
2023/04/01 03:34:28;;;;;;;0.50;0.50;;;17.70;65.20;;;17.86;49.62;93434.69;4866651;29;20284;-25
2023/04/01 03:36:55;;;;;;;0.50;0.50;;;17.70;65.10;;;17.86;49.33;93442.66;4866727;29;20216;-25
2023/04/01 03:39:23;;;;;;;0.50;0.50;;;17.70;65.20;;;17.86;49.42;93439.22;4866687;29;20281;-25
2023/04/01 03:41:50;;;;;;;0.50;0.50;;;17.70;66.10;;;17.86;49.33;93437.34;4851472;29;20209;-25
2023/04/01 03:44:17;;;;;;;0.40;0.40;;;17.70;65.20;;;17.87;49.85;93440.78;4866584;29;20256;-25
2023/04/01 03:46:48;;;;;;;0.50;0.50;;;17.70;65.20;;;17.84;49.67;93431.53;4851790;29;20202;-25
2023/04/01 03:49:17;;;;;;;0.50;0.50;;;17.70;65.20;;;17.86;49.53;93441.88;4851383;29;20334;-25
2023/04/01 03:51:44;;;;;;;0.50;0.50;;;17.70;65.10;;;17.85;49.98;93433.13;4866689;29;20371;-25
2023/04/01 03:54:12;;;;;;;0.40;0.40;;;17.70;65.20;;;17.84;49.28;93441.34;4851266;29;20217;-25
2023/04/01 03:56:39;;;;;;;0.50;0.50;;;17.70;65.20;;;17.86;49.27;93455.16;4866366;29;20236;-25
2023/04/01 03:59:08;;;;;;;0.50;0.50;;;17.70;65.20;;;17.83;49.50;93445.84;4882733;29;20598;-25
2023/04/01 04:01:35;;;;;;;0.50;0.50;;;17.70;65.20;;;17.84;49.93;93449.31;4882965;29;20221;-25
2023/04/01 04:04:03;;;;;;;0.43;0.43;;;17.70;65.20;;;17.83;49.54;93442.41;4882785;29;20629;-25
2023/04/01 04:06:30;;;;;;;0.50;0.50;;;17.70;65.20;;;17.83;49.53;93442.41;4866198;29;20269;-25
2023/04/01 04:08:57;;;;;;;0.50;0.50;;;17.70;65.20;;;17.82;49.34;93446.94;4866144;29;20307;-25
2023/04/01 04:11:26;;;;;;;0.50;0.50;;;17.70;65.20;;;17.83;49.32;93445.84;4881563;29;20533;-25
2023/04/01 04:13:53;;;;;;;0.50;0.50;;;17.70;65.20;;;17.82;49.66;93444.28;4881570;29;20206;-25
2023/04/01 04:16:22;;;;;;;0.50;0.50;;;17.70;65.20;;;17.84;49.42;93449.31;4865917;29;20211;-25
2023/04/01 04:18:56;;;;;;;0.50;0.50;;;17.70;65.20;;;17.82;49.74;93449.59;4866033;29;20198;-25
2023/04/01 04:21:23;;;;;;;0.60;0.60;;;17.70;65.20;;;17.81;49.59;93447.19;4865921;29;20211;-25
2023/04/01 04:23:51;;;;;;;0.50;0.50;;;17.70;65.20;;;17.81;49.85;93455.94;4882613;29;20601;-25
2023/04/01 04:26:19;;;;;;;0.50;0.50;;;17.70;65.20;;;17.82;49.04;93454.91;4850543;29;20232;-25
2023/04/01 04:28:55;;;;;;;0.50;0.50;;;17.70;65.20;;;17.82;49.92;93456.72;4865996;29;20260;-25
2023/04/01 04:31:25;;;;;;;0.50;0.50;;;17.70;65.20;;;17.82;49.30;93462.84;4866682;29;20316;-25
2023/04/01 04:33:55;;;;;;;0.50;0.50;;;17.70;65.20;;;17.82;49.51;93446.13;4865820;29;20197;-25
2023/04/01 04:36:22;;;;;;;0.50;0.50;;;17.70;65.20;;;17.80;49.78;93453.56;4865565;29;20266;-25
2023/04/01 04:38:51;;;;;;;0.60;0.60;;;17.70;65.20;;;17.79;49.94;93458.06;4866377;29;20288;-23
2023/04/01 04:41:21;;;;;;;0.50;0.50;;;17.70;65.20;;;17.81;49.37;93457.78;4850708;29;20209;-21
2023/04/01 04:43:56;;;;;;;0.50;0.50;;;17.70;65.30;;;17.78;49.72;93464.44;4866070;29;20228;-24
2023/04/01 04:46:25;;;;;;;0.50;0.50;;;17.70;65.30;;;17.77;49.57;93457.53;4850654;29;20633;-22
2023/04/01 04:49:03;;;;;;;0.50;0.50;;;17.70;65.20;;;17.77;49.74;93461.00;4865808;29;20241;-25
2023/04/01 04:51:33;;;;;;;0.55;0.55;;;17.70;65.20;;;17.76;49.97;93464.72;4865749;29;20202;-24
2023/04/01 04:54:05;;;;;;;0.50;0.50;;;17.70;65.20;;;17.76;49.33;93462.06;4881813;29;20197;-22
2023/04/01 04:56:46;;;;;;;0.52;0.52;;;17.70;65.30;;;17.75;49.29;93455.19;4852259;29;20211;-25
2023/04/01 04:59:13;;;;;;;0.60;0.60;;;17.60;65.20;;;17.75;49.40;93455.19;4865591;29;20216;-22
2023/04/01 05:01:47;;;;;;;0.45;0.45;;;17.70;65.30;;;17.76;49.38;93450.69;4866885;29;20185;-22
2023/04/01 05:04:15;;;;;;;0.50;0.50;;;17.70;65.20;;;17.76;49.60;93453.34;4865910;29;20201;-25
2023/04/01 05:06:44;;;;;;;0.50;0.50;;;17.70;65.30;;;17.75;49.46;93449.88;4850171;29;20204;-25
2023/04/01 05:09:11;;;;;;;0.45;0.45;;;17.70;65.30;;;17.76;49.42;93450.69;4850673;29;20664;-25
2023/04/01 05:11:40;;;;;;;0.50;0.50;;;17.60;65.20;;;17.74;49.66;93447.50;4882393;29;20201;-22
2023/04/01 05:14:15;;;;;;;0.40;0.40;;;17.60;65.20;;;17.75;49.80;93455.19;4865631;29;20205;-26
2023/04/01 05:16:50;;;;;;;0.50;0.50;;;17.60;65.20;;;17.74;49.68;93447.50;4865461;29;20209;-26
2023/04/01 05:19:18;;;;;;;0.50;0.50;;;17.70;65.30;;;17.74;49.36;93458.09;4881734;29;20282;-22
2023/04/01 05:21:45;;;;;;;0.50;0.50;;;17.70;65.30;;;17.73;49.85;93438.72;4882053;29;20511;-27
2023/04/01 05:24:13;;;;;;;0.50;0.50;;;17.60;65.20;;;17.75;50.05;93449.09;4881251;29;20219;-23
2023/04/01 05:26:40;;;;;;;0.50;0.50;;;17.60;65.30;;;17.76;49.35;93454.13;4864992;29;20288;-25
2023/04/01 05:29:08;;;;;;;0.50;0.50;;;17.60;65.20;;;17.75;49.91;93465.00;4865221;29;20642;-24
2023/04/01 05:31:35;;;;;;;0.50;0.50;;;17.60;65.30;;;17.75;49.48;93454.41;4865491;29;20261;-25
2023/04/01 05:34:03;;;;;;;0.45;0.45;;;17.60;65.30;;;17.74;49.74;93458.09;4865236;29;20304;-25
2023/04/01 05:36:31;;;;;;;0.50;0.50;;;17.60;65.20;;;17.75;49.79;93454.41;4865133;29;20269;-25
2023/04/01 05:38:58;;;;;;;0.50;0.50;;;17.60;65.30;;;17.75;49.51;93454.41;4881684;29;20194;-24
2023/04/01 05:41:29;;;;;;;0.50;0.50;;;17.60;65.30;;;17.74;49.60;93466.06;4865165;29;20245;-25
2023/04/01 05:43:56;;;;;;;0.45;0.45;;;17.60;65.30;;;17.76;49.97;93464.72;4865177;29;20197;-22
2023/04/01 05:46:43;;;;;;;0.50;0.50;;;17.60;65.30;;;17.74;49.44;93461.53;4881274;29;20220;-24
2023/04/01 05:49:22;;;;;;;0.50;0.50;;;17.60;65.30;;;17.75;49.81;93472.97;4864906;29;20629;-22
2023/04/01 05:51:51;;;;;;;0.40;0.40;;;17.60;65.30;;;17.73;49.40;93467.91;4849702;29;20292;-22
2023/04/01 05:54:19;;;;;;;0.50;0.50;;;17.60;65.30;;;17.75;49.79;93476.38;4866981;29;20305;-25
2023/04/01 05:56:47;;;;;;;0.50;0.50;;;17.60;65.30;;;17.75;49.75;93475.59;4869127;29;20280;-22
2023/04/01 05:59:15;;;;;;;0.47;0.47;;;17.60;65.30;;;17.75;49.86;93480.91;4869048;29;20283;-23
2023/04/01 06:01:42;;;;;;;0.50;0.50;;;17.60;65.30;;;17.78;49.65;93483.00;4868624;29;20212;-24
2023/04/01 06:04:16;;;;;;;0.50;0.50;;;17.60;65.30;;;17.75;49.67;93484.34;4869288;29;20198;-22
2023/04/01 06:06:45;;;;;;;0.50;0.50;;;17.60;65.30;;;17.78;49.73;93483.00;4838387;29;20217;-24
2023/04/01 06:09:29;;;;;;;0.50;0.50;;;17.60;65.30;;;17.75;49.71;93481.69;4853283;29;20197;-25
2023/04/01 06:12:29;;;;;;;0.50;0.50;;;17.60;65.30;;;17.73;49.45;93497.06;4853716;29;20198;-22
2023/04/01 06:15:24;;;;;;;0.50;0.50;;;17.60;65.30;;;17.76;49.80;93493.91;4853689;29;20522;-22
2023/04/01 06:18:37;;;;;;;0.45;0.45;;;17.60;65.30;;;17.75;49.61;93496.81;4853787;29;20514;-22
2023/04/01 06:21:41;;;;;;;0.50;0.50;;;17.60;65.30;;;17.73;50.09;93493.63;4853028;29;20201;-22
2023/04/01 06:24:57;;;;;;;0.43;0.43;;;17.60;65.30;;;17.73;49.73;93497.06;4884829;29;20264;-22
2023/04/01 06:27:53;;;;;;;0.50;0.50;;;17.60;65.30;;;17.72;50.01;93497.34;4868229;29;20201;-23
2023/04/01 06:30:38;;;;;;;0.50;0.50;;;17.60;65.30;;;17.72;49.55;93492.84;4868086;29;20239;-22
2023/04/01 06:33:29;;;;;;;0.40;0.40;;;17.60;65.30;;;17.74;49.67;93495.22;4853281;29;20226;-22
2023/04/01 06:36:00;;;;;;;0.50;0.50;;;17.60;65.30;;;17.74;50.02;93509.28;4853133;29;20515;-22
2023/04/01 06:38:42;;;;;;;0.45;0.45;;;17.60;65.30;;;17.76;49.61;93501.84;4883405;29;20297;-29
2023/04/01 06:41:43;;;;;;;0.50;0.50;;;17.60;65.40;;;17.75;49.63;93510.09;4868428;29;20190;-22
2023/04/01 06:44:50;;;;;;;0.50;0.50;;;17.60;65.40;;;17.73;50.08;93507.69;4884222;29;20685;-25
2023/04/01 06:48:00;;;;;;;0.40;0.40;;;17.60;65.30;;;17.77;49.90;93499.97;4870777;29;20714;-24
2023/04/01 06:51:24;;;;;;;0.52;0.52;;;17.60;65.40;;;17.76;50.06;93511.69;4884452;29;20204;-25
2023/04/01 06:54:21;;;;;;;0.50;0.50;;;17.70;65.50;;;17.73;49.58;93504.25;4884154;29;20265;-24
2023/04/01 06:57:40;;;;;;;0.50;0.50;;;17.60;65.30;;;17.76;49.84;93509.03;4850378;29;20210;-25
2023/04/01 07:00:34;;;;;;;0.50;0.50;;;17.70;65.40;;;17.75;49.58;93510.09;4884251;29;20209;-25
2023/04/01 07:03:23;;;;;;;0.40;0.40;;;17.60;65.40;;;17.76;49.61;93514.31;4867907;29;20308;-24
2023/04/01 07:05:51;;;;;;;0.60;0.60;;;17.60;65.40;;;17.79;49.88;93516.41;4866379;29;20255;-25
2023/04/01 07:08:28;;;;;;;0.50;0.50;;;17.70;65.50;;;17.80;49.69;93515.38;4867753;29;20197;-22
2023/04/01 07:11:05;;;;;;;0.50;0.50;;;17.70;65.50;;;17.83;50.13;93514.81;4867009;29;20549;-22
2023/04/01 07:14:20;;;;;;;0.50;0.50;;;17.70;65.60;;;17.84;49.76;93502.34;4869990;29;20200;-25
2023/04/01 07:17:08;;;;;;;0.50;0.50;;;17.70;65.50;;;17.85;49.75;93509.25;4867277;29;20205;-22
2023/04/01 07:19:54;;;;;;;0.45;0.45;;;17.70;65.50;;;17.82;50.26;93510.59;4867185;29;20202;-25
2023/04/01 07:22:39;;;;;;;0.40;0.40;;;17.70;65.60;;;17.86;49.46;93510.84;4866970;29;20289;-24
2023/04/01 07:25:25;;;;;;;0.52;0.52;;;17.70;64.90;;;17.80;48.99;93517.19;4868746;29;20233;-24
2023/04/01 07:28:16;;;;;;;0.60;0.60;;;17.70;63.90;;;17.69;48.68;93511.94;4867738;29;20649;-21
2023/04/01 07:31:25;;;;;;;0.57;0.57;;;17.70;63.60;;;17.56;47.77;93509.88;4867354;29;20612;-22
2023/04/01 07:34:13;;;;;;;0.52;0.52;;;17.70;63.20;;;17.42;47.49;93515.75;4882474;29;20229;-22
2023/04/01 07:37:06;;;;;;;0.50;0.50;;;17.60;62.60;;;17.32;47.92;93517.63;4867110;29;20209;-22
2023/04/01 07:39:58;;;;;;;0.60;0.60;;;17.50;62.30;;;17.25;47.07;93523.22;4866848;29;20219;-24
2023/04/01 07:43:14;;;;;;;0.60;0.60;;;17.50;62.10;;;17.13;47.25;93528.78;4866975;29;20344;-22
2023/04/01 07:46:07;;;;;;;0.50;0.50;;;17.30;62.00;;;17.05;47.32;93518.72;4882165;29;20321;-21
2023/04/01 07:49:06;;;;;;;0.60;0.60;;;17.30;62.20;;;17.00;47.26;93531.97;4866548;29;20233;-21
2023/04/01 07:52:08;;;;;;;0.60;0.60;;;17.20;61.80;;;16.94;46.74;93529.31;4861000;29;20207;-25
2023/04/01 07:54:58;;;;;;;0.50;0.50;;;17.20;61.60;;;16.87;47.02;93543.84;4866429;29;20543;-22
2023/04/01 07:58:09;;;;;;;0.60;0.60;;;17.10;61.60;;;16.80;46.88;93549.41;4883072;29;20201;-21
2023/04/01 08:00:56;;;;;;;0.50;0.50;;;17.10;61.20;;;16.74;46.64;93543.31;4851326;29;20608;-25
2023/04/01 08:04:11;;;;;;;0.60;0.60;;;17.00;61.60;;;16.68;46.69;93552.31;4866463;29;20207;-22
2023/04/01 08:06:59;;;;;;;0.50;0.50;;;16.90;61.30;;;16.62;46.97;93548.88;4881859;29;20221;-23
2023/04/01 08:09:32;;;;;;;0.50;0.50;;;16.90;61.40;;;16.63;46.63;93547.81;4866489;29;20202;-25
2023/04/01 08:13:29;;;;;;;0.60;0.60;;;16.90;61.70;;;16.56;46.53;93557.06;4856467;29;20231;-22
2023/04/01 08:16:27;;;;;;;0.50;0.50;;;16.80;61.10;;;16.47;46.03;93560.22;4855757;29;20215;-21
2023/04/01 08:19:31;;;;;;;0.55;0.55;;;16.70;60.90;;;16.45;46.62;93557.06;4866203;29;20283;-24
2023/04/01 08:22:08;;;;;;;0.52;0.52;;;16.70;61.10;;;16.39;46.18;93566.00;4866762;29;20230;-31
2023/04/01 08:24:45;;;;;;;0.70;0.70;;;16.70;61.00;;;16.41;46.73;93558.63;4866016;29;20548;-24
2023/04/01 08:27:41;;;;;;;0.80;0.80;;;16.70;61.50;;;16.44;46.92;93567.88;4852440;29;20312;-24
2023/04/01 08:30:24;;;;;;;3.20;3.00;;;16.60;61.90;;;16.46;46.77;93566.56;4866395;29;20600;-30
2023/04/01 08:33:13;;;;;;;1.10;1.10;;;16.60;62.10;;;16.49;46.97;93565.28;4850796;29;20193;-24
2023/04/01 08:36:06;;;;;;;0.90;0.90;;;16.60;61.80;;;16.51;46.56;93562.34;4850775;29;20265;-22
2023/04/01 08:38:56;;;;;;;0.80;0.80;;;16.60;61.90;;;16.54;47.37;93564.47;4851719;29;20205;-21
2023/04/01 08:41:43;;;;;;;0.70;0.70;;;16.70;62.20;;;16.57;47.20;93558.66;4865954;29;20701;-21
2023/04/01 08:45:11;;;;;;;0.60;0.60;;;16.70;62.40;;;16.56;47.01;93549.91;4860834;29;20217;-25
2023/04/01 08:48:19;;;;;;;0.68;0.68;;;16.70;62.40;;;16.61;47.48;93575.59;4851718;29;20292;-25
2023/04/01 08:51:25;;;;;;;0.60;0.60;;;16.70;62.40;;;16.61;47.32;93562.34;4866076;29;20289;-21
2023/04/01 08:54:29;;;;;;;0.60;0.60;;;16.70;62.50;;;16.64;47.07;93573.22;4850913;29;20211;-24
2023/04/01 08:57:19;;;;;;;0.60;0.60;;;16.70;62.50;;;16.68;47.00;93578.00;4866263;29;20198;-25
2023/04/01 09:01:10;;;;;;;0.60;0.60;;;16.70;62.40;;;16.67;47.25;93563.19;4868533;29;20235;-21
2023/04/01 09:04:25;;;;;;;0.63;0.63;;;16.80;62.60;;;16.67;47.11;93565.81;4763634;29;20209;-25
2023/04/01 09:07:52;;;;;;;0.70;0.70;;;16.80;62.50;;;16.68;47.20;93572.72;4881206;29;20680;-21
2023/04/01 09:11:11;;;;;;;0.50;0.50;;;16.80;62.40;;;16.65;47.43;93574.81;4865388;29;20209;-22
2023/04/01 09:14:07;;;;;;;0.60;0.60;;;16.80;62.30;;;16.64;47.04;93575.88;4853771;29;20609;-22
2023/04/01 09:17:27;;;;;;;0.50;0.50;;;16.80;62.20;;;16.63;47.15;93578.78;4865444;29;20243;-25
2023/04/01 09:20:33;;;;;;;0.60;0.60;;;16.80;62.30;;;16.59;47.12;93583.81;4865453;29;20213;-22
2023/04/01 09:23:37;;;;;;;0.50;0.50;;;16.80;62.20;;;16.59;47.09;93581.16;4882487;29;20276;-22
2023/04/01 09:26:26;;;;;;;0.70;0.70;;;16.80;62.20;;;16.56;47.04;93580.88;4881432;29;20537;-24
2023/04/01 09:29:17;;;;;;;0.60;0.60;;;16.80;62.10;;;16.57;46.98;93582.47;4881064;29;20434;-21
2023/04/01 09:32:16;;;;;;;0.52;0.52;;;16.80;62.20;;;16.56;47.02;93581.66;4867015;29;20200;-22
2023/04/01 09:35:21;;;;;;;0.60;0.60;;;16.80;62.20;;;16.57;46.93;93575.31;4837815;29;20209;-22
2023/04/01 09:38:17;;;;;;;0.50;0.50;;;16.70;62.10;;;16.59;47.01;93572.44;4864885;29;20205;-24
2023/04/01 09:40:56;;;;;;;0.50;0.50;;;16.70;63.20;;;16.62;47.25;93580.66;4864934;29;20220;-25
2023/04/01 09:44:18;;;;;;;0.60;0.60;;;16.70;62.30;;;16.62;47.32;93566.59;4880083;29;20213;-22
2023/04/01 09:47:58;;;;;;;0.60;0.60;;;16.80;62.50;;;16.66;47.29;93567.66;4880630;29;20674;-24
2023/04/01 09:50:55;;;;;;;0.50;0.50;;;16.80;62.40;;;16.67;47.40;93563.19;4830520;29;20213;-25
2023/04/01 09:53:59;;;;;;;0.60;0.60;;;16.80;62.30;;;16.72;47.34;93563.97;4881711;29;20182;-22
2023/04/01 09:57:19;;;;;;;0.60;0.60;;;16.80;62.40;;;16.74;47.13;93561.84;4864916;29;20200;-24
2023/04/01 10:00:33;;;;;;;0.50;0.50;;;16.80;62.30;;;16.76;47.08;93588.06;4851353;29;20295;-24
2023/04/01 10:03:41;;;;;;;0.57;0.57;;;16.90;62.30;;;16.78;47.14;93575.34;4864111;29;20613;-23
2023/04/01 10:06:46;;;;;;;0.60;0.60;;;16.90;62.30;;;16.81;47.41;93569.53;4864465;29;20308;-21
2023/04/01 10:09:44;;;;;;;0.60;0.60;;;16.90;62.30;;;16.80;46.84;93581.19;4864914;29;20201;-24
2023/04/01 10:12:40;;;;;;;0.60;0.60;;;16.90;62.10;;;16.80;46.90;93574.03;4864726;29;20201;-21
2023/04/01 10:15:24;;;;;;;0.50;0.50;;;16.90;62.00;;;16.81;47.00;93582.78;4864778;29;20261;-22
2023/04/01 10:18:30;;;;;;;0.60;0.60;;;16.90;61.90;;;16.82;46.63;93579.09;4865091;29;20230;-24
2023/04/01 10:21:17;;;;;;;0.60;0.60;;;16.90;62.00;;;16.83;46.95;93577.22;4788125;30;20235;-21
2023/04/01 10:24:32;;;;;;;0.60;0.60;;;16.90;61.80;;;16.81;46.82;93575.63;4877875;29;20221;-24
2023/04/01 10:27:33;;;;;;;0.50;0.50;;;16.90;61.70;;;16.85;46.77;93583.06;4787657;30;20220;-24
2023/04/01 10:30:18;;;;;;;0.50;0.50;;;16.90;61.60;;;16.84;46.45;93586.75;4881108;29;20212;-24
2023/04/01 10:33:22;;;;;;;0.50;0.50;;;16.90;61.80;;;16.85;46.60;93569.81;4864641;29;20216;-22
2023/04/01 10:36:53;;;;;;;0.50;0.50;;;16.90;61.50;;;16.80;46.92;93568.72;4880944;29;20186;-24
2023/04/01 10:40:01;;;;;;;0.50;0.50;;;16.90;61.50;;;16.83;46.51;93572.72;4788740;29;20274;-21
2023/04/01 10:43:28;;;;;;;0.50;0.50;;;17.00;61.50;;;16.85;46.46;93573.25;4868027;29;20297;-22
2023/04/01 10:46:41;;;;;;;0.57;0.57;;;17.00;61.60;;;16.85;46.27;93581.19;4853084;29;20300;-22
2023/04/01 10:49:28;;;;;;;0.50;0.50;;;17.00;61.50;;;16.86;46.40;93582.00;4867734;29;20240;-24
2023/04/01 10:52:09;;;;;;;0.50;0.50;;;17.00;61.60;;;16.89;46.41;93582.25;4868530;29;20209;-21
2023/04/01 10:55:45;;;;;;;0.50;0.50;;;17.00;61.70;;;16.87;46.32;93584.38;4845577;29;20179;-21
2023/04/01 10:58:56;;;;;;;0.60;0.60;;;17.00;61.70;;;16.92;46.71;93580.97;4870606;29;20197;-25
2023/04/01 11:01:57;;;;;;;0.50;0.50;;;17.00;61.60;;;16.93;46.42;93574.59;4884111;29;20233;-25
2023/04/01 11:05:49;;;;;;;0.52;0.52;;;17.00;61.70;;;16.94;46.49;93582.28;4884816;29;20201;-22
2023/04/01 11:09:05;;;;;;;0.50;0.50;;;17.00;61.70;;;16.95;46.55;93575.94;4790548;30;20676;-22
2023/04/01 11:12:09;;;;;;;0.50;0.50;;;17.10;61.70;;;16.96;46.47;93574.88;4776125;30;20207;-25
2023/04/01 11:15:27;;;;;;;0.50;0.50;;;17.10;61.40;;;16.98;46.33;93571.16;4848881;29;20197;-21
2023/04/01 11:18:36;;;;;;;0.57;0.57;;;17.10;61.20;;;16.99;46.16;93565.63;4851654;29;20578;-21
2023/04/01 11:21:53;;;;;;;0.60;0.60;;;17.10;61.20;;;16.99;46.09;93565.63;4849493;29;20434;-21
2023/04/01 11:24:46;;;;;;;0.60;0.60;;;17.10;61.20;;;17.05;46.33;93563.75;4865149;29;20370;-24
2023/04/01 11:27:54;;;;;;;0.50;0.50;;;17.10;61.40;;;17.08;46.19;93557.94;4848510;29;20249;-25
2023/04/01 11:30:54;;;;;;;0.50;0.50;;;17.10;61.70;;;17.13;46.54;93553.41;4848535;29;20603;-22
2023/04/01 11:33:39;;;;;;;0.50;0.50;;;17.20;61.80;;;17.17;46.65;93550.25;4849623;29;20198;-21